sensor_id;sensor_type;location;lat;lon;timestamp;P1;durP1;ratioP1;P2;durP2;ratioP2
73879;SDS011;62211;42.986;23.256;2022-11-15T00:00:49;21.60;;;8.40;;
73879;SDS011;62211;42.986;23.256;2022-11-15T00:03:18;24.95;;;9.95;;
73879;SDS011;62211;42.986;23.256;2022-11-15T00:05:45;22.40;;;8.85;;
73879;SDS011;62211;42.986;23.256;2022-11-15T00:08:12;22.13;;;8.80;;
73879;SDS011;62211;42.986;23.256;2022-11-15T00:10:37;29.27;;;9.93;;
73879;SDS011;62211;42.986;23.256;2022-11-15T00:13:10;20.88;;;9.75;;
73879;SDS011;62211;42.986;23.256;2022-11-15T00:15:37;20.63;;;8.75;;
73879;SDS011;62211;42.986;23.256;2022-11-15T00:18:04;23.98;;;9.13;;
73879;SDS011;62211;42.986;23.256;2022-11-15T00:20:30;18.27;;;9.57;;
73879;SDS011;62211;42.986;23.256;2022-11-15T00:22:56;16.48;;;8.63;;
73879;SDS011;62211;42.986;23.256;2022-11-15T00:25:21;19.70;;;9.77;;
73879;SDS011;62211;42.986;23.256;2022-11-15T00:27:47;21.38;;;8.80;;
73879;SDS011;62211;42.986;23.256;2022-11-15T00:30:12;14.35;;;7.55;;
73879;SDS011;62211;42.986;23.256;2022-11-15T00:32:37;25.05;;;9.48;;
73879;SDS011;62211;42.986;23.256;2022-11-15T00:35:03;17.58;;;7.50;;
73879;SDS011;62211;42.986;23.256;2022-11-15T00:37:29;22.98;;;8.80;;
73879;SDS011;62211;42.986;23.256;2022-11-15T00:39:54;19.73;;;9.18;;
73879;SDS011;62211;42.986;23.256;2022-11-15T00:42:19;16.20;;;9.63;;
73879;SDS011;62211;42.986;23.256;2022-11-15T00:44:45;23.80;;;8.85;;
73879;SDS011;62211;42.986;23.256;2022-11-15T00:47:10;18.85;;;8.30;;
73879;SDS011;62211;42.986;23.256;2022-11-15T00:49:35;23.90;;;9.68;;
73879;SDS011;62211;42.986;23.256;2022-11-15T00:52:01;16.95;;;8.20;;
73879;SDS011;62211;42.986;23.256;2022-11-15T00:54:26;20.98;;;8.32;;
73879;SDS011;62211;42.986;23.256;2022-11-15T00:56:52;16.33;;;7.93;;
73879;SDS011;62211;42.986;23.256;2022-11-15T00:59:17;15.35;;;8.23;;
73879;SDS011;62211;42.986;23.256;2022-11-15T01:01:43;18.60;;;8.82;;
73879;SDS011;62211;42.986;23.256;2022-11-15T01:04:08;13.32;;;6.90;;
73879;SDS011;62211;42.986;23.256;2022-11-15T01:06:33;17.15;;;8.13;;
73879;SDS011;62211;42.986;23.256;2022-11-15T01:08:59;18.33;;;8.25;;
73879;SDS011;62211;42.986;23.256;2022-11-15T01:11:24;18.02;;;9.07;;
73879;SDS011;62211;42.986;23.256;2022-11-15T01:13:50;12.77;;;7.53;;
73879;SDS011;62211;42.986;23.256;2022-11-15T01:16:16;18.85;;;9.23;;
73879;SDS011;62211;42.986;23.256;2022-11-15T01:18:43;17.13;;;7.97;;
73879;SDS011;62211;42.986;23.256;2022-11-15T01:21:10;16.92;;;7.32;;
73879;SDS011;62211;42.986;23.256;2022-11-15T01:23:37;18.27;;;8.30;;
73879;SDS011;62211;42.986;23.256;2022-11-15T01:26:03;15.75;;;7.28;;
73879;SDS011;62211;42.986;23.256;2022-11-15T01:28:32;19.23;;;7.22;;
73879;SDS011;62211;42.986;23.256;2022-11-15T01:31:02;18.30;;;8.50;;
73879;SDS011;62211;42.986;23.256;2022-11-15T01:33:29;19.13;;;8.75;;
73879;SDS011;62211;42.986;23.256;2022-11-15T01:35:55;19.63;;;8.88;;
73879;SDS011;62211;42.986;23.256;2022-11-15T01:38:21;21.63;;;9.00;;
73879;SDS011;62211;42.986;23.256;2022-11-15T01:40:47;11.20;;;7.18;;
73879;SDS011;62211;42.986;23.256;2022-11-15T01:43:20;13.90;;;8.10;;
73879;SDS011;62211;42.986;23.256;2022-11-15T01:45:48;16.27;;;7.03;;
73879;SDS011;62211;42.986;23.256;2022-11-15T01:48:16;12.80;;;7.85;;
73879;SDS011;62211;42.986;23.256;2022-11-15T01:50:41;12.85;;;7.47;;
73879;SDS011;62211;42.986;23.256;2022-11-15T01:53:07;15.52;;;7.32;;
73879;SDS011;62211;42.986;23.256;2022-11-15T01:55:32;13.95;;;6.95;;
73879;SDS011;62211;42.986;23.256;2022-11-15T01:57:59;14.77;;;7.72;;
73879;SDS011;62211;42.986;23.256;2022-11-15T02:00:27;18.30;;;7.22;;
73879;SDS011;62211;42.986;23.256;2022-11-15T02:02:54;13.55;;;6.63;;
73879;SDS011;62211;42.986;23.256;2022-11-15T02:05:19;16.88;;;7.10;;
73879;SDS011;62211;42.986;23.256;2022-11-15T02:07:45;16.80;;;7.68;;
73879;SDS011;62211;42.986;23.256;2022-11-15T02:10:12;16.58;;;7.93;;
73879;SDS011;62211;42.986;23.256;2022-11-15T02:12:41;19.50;;;6.72;;
73879;SDS011;62211;42.986;23.256;2022-11-15T02:15:07;12.27;;;6.00;;
73879;SDS011;62211;42.986;23.256;2022-11-15T02:34:55;11.85;;;6.78;;
73879;SDS011;62211;42.986;23.256;2022-11-15T02:37:03;9.33;;;5.97;;
73879;SDS011;62211;42.986;23.256;2022-11-15T02:42:26;12.63;;;6.13;;
73879;SDS011;62211;42.986;23.256;2022-11-15T02:45:17;11.60;;;6.93;;
73879;SDS011;62211;42.986;23.256;2022-11-15T02:47:48;15.18;;;7.10;;
73879;SDS011;62211;42.986;23.256;2022-11-15T02:50:19;16.02;;;7.45;;
73879;SDS011;62211;42.986;23.256;2022-11-15T02:52:46;11.05;;;6.78;;
73879;SDS011;62211;42.986;23.256;2022-11-15T02:55:29;14.48;;;6.55;;
73879;SDS011;62211;42.986;23.256;2022-11-15T03:00:58;11.52;;;6.05;;
73879;SDS011;62211;42.986;23.256;2022-11-15T03:11:49;10.93;;;6.65;;
73879;SDS011;62211;42.986;23.256;2022-11-15T03:14:21;11.43;;;5.75;;
73879;SDS011;62211;42.986;23.256;2022-11-15T03:17:38;10.95;;;5.22;;
73879;SDS011;62211;42.986;23.256;2022-11-15T03:19:45;14.85;;;6.55;;
73879;SDS011;62211;42.986;23.256;2022-11-15T03:22:14;15.48;;;8.15;;
73879;SDS011;62211;42.986;23.256;2022-11-15T03:24:42;13.57;;;6.82;;
73879;SDS011;62211;42.986;23.256;2022-11-15T03:27:09;13.00;;;6.13;;
73879;SDS011;62211;42.986;23.256;2022-11-15T03:29:39;11.60;;;6.07;;
73879;SDS011;62211;42.986;23.256;2022-11-15T03:32:12;9.98;;;5.57;;
73879;SDS011;62211;42.986;23.256;2022-11-15T03:34:45;11.73;;;5.85;;
73879;SDS011;62211;42.986;23.256;2022-11-15T03:37:14;8.75;;;5.15;;
73879;SDS011;62211;42.986;23.256;2022-11-15T03:39:41;8.45;;;4.25;;
73879;SDS011;62211;42.986;23.256;2022-11-15T03:45:29;12.07;;;5.30;;
73879;SDS011;62211;42.986;23.256;2022-11-15T03:47:49;9.82;;;5.70;;
73879;SDS011;62211;42.986;23.256;2022-11-15T03:50:18;13.07;;;5.93;;
73879;SDS011;62211;42.986;23.256;2022-11-15T03:52:45;11.55;;;5.72;;
73879;SDS011;62211;42.986;23.256;2022-11-15T03:55:13;11.35;;;6.18;;
73879;SDS011;62211;42.986;23.256;2022-11-15T03:57:41;13.00;;;5.95;;
73879;SDS011;62211;42.986;23.256;2022-11-15T04:00:07;12.27;;;6.88;;
73879;SDS011;62211;42.986;23.256;2022-11-15T04:02:33;15.52;;;6.53;;
73879;SDS011;62211;42.986;23.256;2022-11-15T04:04:58;13.43;;;7.15;;
73879;SDS011;62211;42.986;23.256;2022-11-15T04:07:24;12.73;;;6.95;;
73879;SDS011;62211;42.986;23.256;2022-11-15T04:09:49;14.70;;;5.82;;
73879;SDS011;62211;42.986;23.256;2022-11-15T04:12:27;11.30;;;6.22;;
73879;SDS011;62211;42.986;23.256;2022-11-15T04:15:03;9.60;;;5.50;;
73879;SDS011;62211;42.986;23.256;2022-11-15T04:17:34;10.50;;;5.70;;
73879;SDS011;62211;42.986;23.256;2022-11-15T04:19:59;13.93;;;6.05;;
73879;SDS011;62211;42.986;23.256;2022-11-15T04:22:43;7.82;;;5.22;;
73879;SDS011;62211;42.986;23.256;2022-11-15T04:25:27;14.02;;;6.22;;
73879;SDS011;62211;42.986;23.256;2022-11-15T04:27:53;12.27;;;5.45;;
73879;SDS011;62211;42.986;23.256;2022-11-15T04:30:19;11.43;;;5.40;;
73879;SDS011;62211;42.986;23.256;2022-11-15T04:32:44;7.65;;;4.47;;
73879;SDS011;62211;42.986;23.256;2022-11-15T04:35:10;10.27;;;5.75;;
73879;SDS011;62211;42.986;23.256;2022-11-15T04:37:35;12.43;;;6.38;;
73879;SDS011;62211;42.986;23.256;2022-11-15T04:40:00;13.73;;;5.90;;
73879;SDS011;62211;42.986;23.256;2022-11-15T04:42:26;8.65;;;5.95;;
73879;SDS011;62211;42.986;23.256;2022-11-15T04:44:51;10.48;;;5.60;;
73879;SDS011;62211;42.986;23.256;2022-11-15T04:47:16;9.52;;;5.72;;
73879;SDS011;62211;42.986;23.256;2022-11-15T04:49:42;10.30;;;6.10;;
73879;SDS011;62211;42.986;23.256;2022-11-15T04:52:08;9.50;;;5.43;;
73879;SDS011;62211;42.986;23.256;2022-11-15T04:54:34;8.38;;;5.15;;
73879;SDS011;62211;42.986;23.256;2022-11-15T04:56:59;10.38;;;7.30;;
73879;SDS011;62211;42.986;23.256;2022-11-15T04:59:25;13.05;;;6.57;;
73879;SDS011;62211;42.986;23.256;2022-11-15T05:01:50;11.40;;;6.30;;
73879;SDS011;62211;42.986;23.256;2022-11-15T05:04:16;16.98;;;6.90;;
73879;SDS011;62211;42.986;23.256;2022-11-15T05:06:45;14.60;;;6.07;;
73879;SDS011;62211;42.986;23.256;2022-11-15T05:09:13;12.32;;;5.95;;
73879;SDS011;62211;42.986;23.256;2022-11-15T05:11:39;9.70;;;5.60;;
73879;SDS011;62211;42.986;23.256;2022-11-15T05:14:05;12.30;;;4.60;;
73879;SDS011;62211;42.986;23.256;2022-11-15T05:16:30;7.00;;;5.38;;
73879;SDS011;62211;42.986;23.256;2022-11-15T05:18:56;13.32;;;6.82;;
73879;SDS011;62211;42.986;23.256;2022-11-15T05:21:21;9.02;;;5.80;;
73879;SDS011;62211;42.986;23.256;2022-11-15T05:23:47;11.90;;;6.53;;
73879;SDS011;62211;42.986;23.256;2022-11-15T05:26:12;7.10;;;4.85;;
73879;SDS011;62211;42.986;23.256;2022-11-15T05:28:38;10.35;;;5.43;;
73879;SDS011;62211;42.986;23.256;2022-11-15T05:31:05;7.25;;;4.60;;
73879;SDS011;62211;42.986;23.256;2022-11-15T05:33:30;7.88;;;4.43;;
73879;SDS011;62211;42.986;23.256;2022-11-15T05:35:59;8.32;;;4.93;;
73879;SDS011;62211;42.986;23.256;2022-11-15T05:38:28;11.02;;;5.40;;
73879;SDS011;62211;42.986;23.256;2022-11-15T05:40:53;11.15;;;5.07;;
73879;SDS011;62211;42.986;23.256;2022-11-15T05:43:19;8.75;;;4.70;;
73879;SDS011;62211;42.986;23.256;2022-11-15T05:45:44;9.57;;;5.03;;
73879;SDS011;62211;42.986;23.256;2022-11-15T05:48:10;9.07;;;4.82;;
73879;SDS011;62211;42.986;23.256;2022-11-15T05:50:36;8.50;;;5.30;;
73879;SDS011;62211;42.986;23.256;2022-11-15T05:53:04;10.98;;;5.97;;
73879;SDS011;62211;42.986;23.256;2022-11-15T05:55:29;9.48;;;4.82;;
73879;SDS011;62211;42.986;23.256;2022-11-15T05:57:55;19.55;;;6.82;;
73879;SDS011;62211;42.986;23.256;2022-11-15T06:00:21;10.15;;;5.20;;
73879;SDS011;62211;42.986;23.256;2022-11-15T06:02:46;9.80;;;6.78;;
73879;SDS011;62211;42.986;23.256;2022-11-15T06:05:11;12.80;;;6.57;;
73879;SDS011;62211;42.986;23.256;2022-11-15T06:07:37;10.80;;;5.88;;
73879;SDS011;62211;42.986;23.256;2022-11-15T06:10:02;20.27;;;7.05;;
73879;SDS011;62211;42.986;23.256;2022-11-15T06:12:28;11.65;;;5.85;;
73879;SDS011;62211;42.986;23.256;2022-11-15T06:14:53;10.20;;;5.68;;
73879;SDS011;62211;42.986;23.256;2022-11-15T06:17:19;16.55;;;5.85;;
73879;SDS011;62211;42.986;23.256;2022-11-15T06:19:44;14.57;;;6.95;;
73879;SDS011;62211;42.986;23.256;2022-11-15T06:22:09;12.90;;;5.85;;
73879;SDS011;62211;42.986;23.256;2022-11-15T06:24:35;12.95;;;5.72;;
73879;SDS011;62211;42.986;23.256;2022-11-15T06:27:00;9.77;;;5.57;;
73879;SDS011;62211;42.986;23.256;2022-11-15T06:29:26;7.90;;;5.55;;
73879;SDS011;62211;42.986;23.256;2022-11-15T06:31:51;12.95;;;4.47;;
73879;SDS011;62211;42.986;23.256;2022-11-15T06:34:17;12.00;;;6.53;;
73879;SDS011;62211;42.986;23.256;2022-11-15T06:36:43;7.80;;;5.00;;
73879;SDS011;62211;42.986;23.256;2022-11-15T06:39:08;12.98;;;5.60;;
73879;SDS011;62211;42.986;23.256;2022-11-15T06:41:34;11.18;;;6.65;;
73879;SDS011;62211;42.986;23.256;2022-11-15T06:44:00;15.45;;;7.15;;
73879;SDS011;62211;42.986;23.256;2022-11-15T06:46:25;7.70;;;4.47;;
73879;SDS011;62211;42.986;23.256;2022-11-15T06:48:51;11.73;;;5.75;;
73879;SDS011;62211;42.986;23.256;2022-11-15T06:51:17;9.63;;;5.80;;
73879;SDS011;62211;42.986;23.256;2022-11-15T06:53:43;13.65;;;7.07;;
73879;SDS011;62211;42.986;23.256;2022-11-15T06:56:08;14.30;;;6.93;;
73879;SDS011;62211;42.986;23.256;2022-11-15T06:58:34;13.60;;;6.88;;
73879;SDS011;62211;42.986;23.256;2022-11-15T07:01:05;9.57;;;6.00;;
73879;SDS011;62211;42.986;23.256;2022-11-15T07:03:34;14.85;;;7.65;;
73879;SDS011;62211;42.986;23.256;2022-11-15T07:06:00;15.60;;;8.75;;
73879;SDS011;62211;42.986;23.256;2022-11-15T07:08:26;16.38;;;8.77;;
73879;SDS011;62211;42.986;23.256;2022-11-15T07:10:53;13.75;;;7.55;;
73879;SDS011;62211;42.986;23.256;2022-11-15T07:13:18;26.10;;;15.23;;
73879;SDS011;62211;42.986;23.256;2022-11-15T07:15:43;21.67;;;8.88;;
73879;SDS011;62211;42.986;23.256;2022-11-15T07:18:09;13.98;;;6.88;;
73879;SDS011;62211;42.986;23.256;2022-11-15T07:20:34;14.80;;;7.45;;
73879;SDS011;62211;42.986;23.256;2022-11-15T07:23:00;14.35;;;7.28;;
73879;SDS011;62211;42.986;23.256;2022-11-15T07:25:29;9.98;;;5.55;;
73879;SDS011;62211;42.986;23.256;2022-11-15T07:27:55;7.35;;;4.68;;
73879;SDS011;62211;42.986;23.256;2022-11-15T07:30:24;7.97;;;4.25;;
73879;SDS011;62211;42.986;23.256;2022-11-15T07:32:53;9.90;;;6.15;;
73879;SDS011;62211;42.986;23.256;2022-11-15T07:35:19;11.75;;;6.00;;
73879;SDS011;62211;42.986;23.256;2022-11-15T07:37:52;11.07;;;6.80;;
73879;SDS011;62211;42.986;23.256;2022-11-15T07:40:21;11.50;;;6.70;;
73879;SDS011;62211;42.986;23.256;2022-11-15T07:42:47;12.40;;;8.00;;
73879;SDS011;62211;42.986;23.256;2022-11-15T07:45:18;14.52;;;7.07;;
73879;SDS011;62211;42.986;23.256;2022-11-15T07:47:48;20.40;;;8.73;;
73879;SDS011;62211;42.986;23.256;2022-11-15T07:50:15;17.55;;;8.95;;
73879;SDS011;62211;42.986;23.256;2022-11-15T07:52:41;13.65;;;7.43;;
73879;SDS011;62211;42.986;23.256;2022-11-15T07:55:06;9.75;;;6.32;;
73879;SDS011;62211;42.986;23.256;2022-11-15T07:57:32;11.30;;;6.63;;
73879;SDS011;62211;42.986;23.256;2022-11-15T07:59:58;10.93;;;6.22;;
73879;SDS011;62211;42.986;23.256;2022-11-15T08:02:23;15.13;;;6.80;;
73879;SDS011;62211;42.986;23.256;2022-11-15T08:04:48;12.57;;;7.18;;
73879;SDS011;62211;42.986;23.256;2022-11-15T08:07:14;10.93;;;7.07;;
73879;SDS011;62211;42.986;23.256;2022-11-15T08:09:39;10.80;;;5.50;;
73879;SDS011;62211;42.986;23.256;2022-11-15T08:12:05;8.75;;;5.47;;
73879;SDS011;62211;42.986;23.256;2022-11-15T08:14:30;13.07;;;6.70;;
73879;SDS011;62211;42.986;23.256;2022-11-15T08:16:56;11.50;;;6.75;;
73879;SDS011;62211;42.986;23.256;2022-11-15T08:19:21;9.88;;;5.75;;
73879;SDS011;62211;42.986;23.256;2022-11-15T08:21:47;14.15;;;7.63;;
73879;SDS011;62211;42.986;23.256;2022-11-15T08:24:12;13.65;;;7.85;;
73879;SDS011;62211;42.986;23.256;2022-11-15T08:26:38;12.38;;;8.15;;
73879;SDS011;62211;42.986;23.256;2022-11-15T08:29:04;17.38;;;9.27;;
73879;SDS011;62211;42.986;23.256;2022-11-15T08:31:30;13.70;;;7.90;;
73879;SDS011;62211;42.986;23.256;2022-11-15T08:33:55;9.15;;;6.15;;
73879;SDS011;62211;42.986;23.256;2022-11-15T08:36:21;11.10;;;6.80;;
73879;SDS011;62211;42.986;23.256;2022-11-15T08:38:46;10.93;;;6.95;;
73879;SDS011;62211;42.986;23.256;2022-11-15T08:41:13;13.10;;;7.43;;
73879;SDS011;62211;42.986;23.256;2022-11-15T08:43:41;10.32;;;6.38;;
73879;SDS011;62211;42.986;23.256;2022-11-15T08:46:08;13.25;;;7.10;;
73879;SDS011;62211;42.986;23.256;2022-11-15T08:48:36;19.30;;;9.82;;
73879;SDS011;62211;42.986;23.256;2022-11-15T08:51:02;12.90;;;8.25;;
73879;SDS011;62211;42.986;23.256;2022-11-15T08:53:27;14.20;;;7.53;;
73879;SDS011;62211;42.986;23.256;2022-11-15T08:55:53;12.07;;;6.63;;
73879;SDS011;62211;42.986;23.256;2022-11-15T08:58:18;12.32;;;7.28;;
73879;SDS011;62211;42.986;23.256;2022-11-15T09:00:43;10.77;;;6.93;;
73879;SDS011;62211;42.986;23.256;2022-11-15T09:03:09;10.10;;;6.55;;
73879;SDS011;62211;42.986;23.256;2022-11-15T09:05:37;10.95;;;6.32;;
73879;SDS011;62211;42.986;23.256;2022-11-15T09:08:03;11.35;;;6.43;;
73879;SDS011;62211;42.986;23.256;2022-11-15T09:10:28;16.15;;;6.55;;
73879;SDS011;62211;42.986;23.256;2022-11-15T09:12:56;14.77;;;7.25;;
73879;SDS011;62211;42.986;23.256;2022-11-15T09:15:22;13.82;;;7.43;;
73879;SDS011;62211;42.986;23.256;2022-11-15T09:17:47;18.38;;;8.85;;
73879;SDS011;62211;42.986;23.256;2022-11-15T12:03:21;17.20;;;10.95;;
73879;SDS011;62211;42.986;23.256;2022-11-15T12:05:57;20.42;;;11.35;;
73879;SDS011;62211;42.986;23.256;2022-11-15T12:08:33;21.30;;;12.05;;
73879;SDS011;62211;42.986;23.256;2022-11-15T12:11:14;21.38;;;11.15;;
73879;SDS011;62211;42.986;23.256;2022-11-15T12:13:42;24.67;;;13.68;;
73879;SDS011;62211;42.986;23.256;2022-11-15T12:16:19;25.60;;;13.07;;
73879;SDS011;62211;42.986;23.256;2022-11-15T12:18:49;28.77;;;14.57;;
73879;SDS011;62211;42.986;23.256;2022-11-15T12:23:51;23.15;;;12.82;;
73879;SDS011;62211;42.986;23.256;2022-11-15T12:26:25;18.00;;;12.07;;
73879;SDS011;62211;42.986;23.256;2022-11-15T12:29:09;22.63;;;13.75;;
73879;SDS011;62211;42.986;23.256;2022-11-15T12:32:02;20.50;;;12.43;;
73879;SDS011;62211;42.986;23.256;2022-11-15T12:36:54;21.58;;;12.02;;
73879;SDS011;62211;42.986;23.256;2022-11-15T12:39:19;17.17;;;11.68;;
73879;SDS011;62211;42.986;23.256;2022-11-15T12:47:24;21.77;;;11.77;;
73879;SDS011;62211;42.986;23.256;2022-11-15T12:49:50;18.33;;;11.18;;
73879;SDS011;62211;42.986;23.256;2022-11-15T12:52:16;19.33;;;11.48;;
73879;SDS011;62211;42.986;23.256;2022-11-15T13:17:46;20.58;;;12.48;;
73879;SDS011;62211;42.986;23.256;2022-11-15T13:22:41;23.00;;;12.68;;
73879;SDS011;62211;42.986;23.256;2022-11-15T13:35:51;23.90;;;14.70;;
73879;SDS011;62211;42.986;23.256;2022-11-15T13:40:54;19.42;;;10.63;;
73879;SDS011;62211;42.986;23.256;2022-11-15T13:48:40;20.70;;;11.75;;
73879;SDS011;62211;42.986;23.256;2022-11-15T13:51:08;20.65;;;12.73;;
73879;SDS011;62211;42.986;23.256;2022-11-15T13:56:05;22.27;;;12.80;;
73879;SDS011;62211;42.986;23.256;2022-11-15T13:58:31;25.92;;;15.63;;
73879;SDS011;62211;42.986;23.256;2022-11-15T14:00:59;23.63;;;13.85;;
73879;SDS011;62211;42.986;23.256;2022-11-15T14:03:35;23.00;;;14.52;;
73879;SDS011;62211;42.986;23.256;2022-11-15T14:06:11;28.83;;;14.43;;
73879;SDS011;62211;42.986;23.256;2022-11-15T14:08:38;25.05;;;13.43;;
73879;SDS011;62211;42.986;23.256;2022-11-15T14:11:08;24.50;;;13.63;;
73879;SDS011;62211;42.986;23.256;2022-11-15T14:13:41;27.40;;;15.55;;
73879;SDS011;62211;42.986;23.256;2022-11-15T14:16:32;27.95;;;14.93;;
73879;SDS011;62211;42.986;23.256;2022-11-15T14:19:00;33.50;;;17.42;;
73879;SDS011;62211;42.986;23.256;2022-11-15T14:21:25;33.85;;;16.27;;
73879;SDS011;62211;42.986;23.256;2022-11-15T14:23:51;38.47;;;20.67;;
73879;SDS011;62211;42.986;23.256;2022-11-15T14:26:27;51.85;;;23.42;;
73879;SDS011;62211;42.986;23.256;2022-11-15T14:28:52;48.17;;;22.17;;
73879;SDS011;62211;42.986;23.256;2022-11-15T14:31:18;38.13;;;18.00;;
73879;SDS011;62211;42.986;23.256;2022-11-15T14:33:45;32.63;;;17.63;;
73879;SDS011;62211;42.986;23.256;2022-11-15T14:36:12;52.90;;;24.90;;
73879;SDS011;62211;42.986;23.256;2022-11-15T14:38:39;45.20;;;21.80;;
73879;SDS011;62211;42.986;23.256;2022-11-15T14:41:05;32.50;;;18.90;;
73879;SDS011;62211;42.986;23.256;2022-11-15T14:43:30;31.50;;;17.40;;
73879;SDS011;62211;42.986;23.256;2022-11-15T14:45:56;36.20;;;20.85;;
73879;SDS011;62211;42.986;23.256;2022-11-15T14:48:21;42.53;;;21.15;;
73879;SDS011;62211;42.986;23.256;2022-11-15T14:50:47;41.47;;;21.60;;
73879;SDS011;62211;42.986;23.256;2022-11-15T14:53:13;56.75;;;26.80;;
73879;SDS011;62211;42.986;23.256;2022-11-15T14:55:40;45.42;;;23.60;;
73879;SDS011;62211;42.986;23.256;2022-11-15T14:58:06;46.22;;;24.98;;
73879;SDS011;62211;42.986;23.256;2022-11-15T15:00:35;31.23;;;18.20;;
73879;SDS011;62211;42.986;23.256;2022-11-15T15:03:05;36.40;;;19.52;;
73879;SDS011;62211;42.986;23.256;2022-11-15T15:07:59;30.30;;;17.77;;
73879;SDS011;62211;42.986;23.256;2022-11-15T15:10:25;37.95;;;21.63;;
73879;SDS011;62211;42.986;23.256;2022-11-15T15:12:53;33.00;;;18.95;;
73879;SDS011;62211;42.986;23.256;2022-11-15T15:15:23;595.28;;;251.80;;
73879;SDS011;62211;42.986;23.256;2022-11-15T15:17:50;180.93;;;66.43;;
73879;SDS011;62211;42.986;23.256;2022-11-15T15:20:15;345.65;;;150.23;;
73879;SDS011;62211;42.986;23.256;2022-11-15T15:22:41;275.27;;;82.90;;
73879;SDS011;62211;42.986;23.256;2022-11-15T15:25:19;215.05;;;82.65;;
73879;SDS011;62211;42.986;23.256;2022-11-15T15:27:52;209.82;;;74.78;;
73879;SDS011;62211;42.986;23.256;2022-11-15T15:30:17;551.28;;;216.25;;
73879;SDS011;62211;42.986;23.256;2022-11-15T15:32:43;727.90;;;368.35;;
73879;SDS011;62211;42.986;23.256;2022-11-15T15:35:11;107.57;;;45.10;;
73879;SDS011;62211;42.986;23.256;2022-11-15T15:37:40;275.83;;;116.28;;
73879;SDS011;62211;42.986;23.256;2022-11-15T15:40:21;198.13;;;70.82;;
73879;SDS011;62211;42.986;23.256;2022-11-15T15:42:47;123.18;;;48.47;;
73879;SDS011;62211;42.986;23.256;2022-11-15T15:45:13;316.23;;;116.75;;
73879;SDS011;62211;42.986;23.256;2022-11-15T15:47:39;294.58;;;103.70;;
73879;SDS011;62211;42.986;23.256;2022-11-15T15:50:14;195.55;;;75.88;;
73879;SDS011;62211;42.986;23.256;2022-11-15T15:52:46;666.30;;;281.60;;
73879;SDS011;62211;42.986;23.256;2022-11-15T15:55:12;209.90;;;82.15;;
73879;SDS011;62211;42.986;23.256;2022-11-15T15:57:37;98.47;;;36.72;;
73879;SDS011;62211;42.986;23.256;2022-11-15T16:00:03;130.27;;;54.80;;
73879;SDS011;62211;42.986;23.256;2022-11-15T16:02:29;83.22;;;30.88;;
73879;SDS011;62211;42.986;23.256;2022-11-15T16:04:55;158.48;;;56.78;;
73879;SDS011;62211;42.986;23.256;2022-11-15T16:07:21;49.95;;;26.10;;
73879;SDS011;62211;42.986;23.256;2022-11-15T16:09:48;61.55;;;26.58;;
73879;SDS011;62211;42.986;23.256;2022-11-15T16:12:31;52.20;;;24.58;;
73879;SDS011;62211;42.986;23.256;2022-11-15T16:14:57;419.25;;;136.27;;
73879;SDS011;62211;42.986;23.256;2022-11-15T16:17:24;533.08;;;182.25;;
73879;SDS011;62211;42.986;23.256;2022-11-15T16:19:51;204.52;;;82.18;;
73879;SDS011;62211;42.986;23.256;2022-11-15T16:22:16;182.60;;;67.50;;
73879;SDS011;62211;42.986;23.256;2022-11-15T16:24:41;107.70;;;48.63;;
73879;SDS011;62211;42.986;23.256;2022-11-15T16:27:25;70.70;;;32.20;;
73879;SDS011;62211;42.986;23.256;2022-11-15T16:29:50;61.90;;;30.83;;
73879;SDS011;62211;42.986;23.256;2022-11-15T16:32:16;52.88;;;25.17;;
73879;SDS011;62211;42.986;23.256;2022-11-15T16:34:42;84.35;;;36.85;;
73879;SDS011;62211;42.986;23.256;2022-11-15T16:37:19;109.60;;;46.92;;
73879;SDS011;62211;42.986;23.256;2022-11-15T16:39:47;139.40;;;53.80;;
73879;SDS011;62211;42.986;23.256;2022-11-15T16:42:12;82.00;;;35.10;;
73879;SDS011;62211;42.986;23.256;2022-11-15T16:44:37;68.72;;;30.65;;
73879;SDS011;62211;42.986;23.256;2022-11-15T16:47:03;65.10;;;28.70;;
73879;SDS011;62211;42.986;23.256;2022-11-15T16:49:28;52.22;;;26.25;;
73879;SDS011;62211;42.986;23.256;2022-11-15T16:51:54;61.17;;;27.35;;
73879;SDS011;62211;42.986;23.256;2022-11-15T16:54:19;46.92;;;24.70;;
73879;SDS011;62211;42.986;23.256;2022-11-15T16:56:45;49.35;;;22.55;;
73879;SDS011;62211;42.986;23.256;2022-11-15T16:59:13;75.63;;;34.20;;
73879;SDS011;62211;42.986;23.256;2022-11-15T17:01:41;55.42;;;26.67;;
73879;SDS011;62211;42.986;23.256;2022-11-15T17:04:11;70.93;;;33.28;;
73879;SDS011;62211;42.986;23.256;2022-11-15T17:06:41;78.32;;;35.90;;
73879;SDS011;62211;42.986;23.256;2022-11-15T17:09:11;102.78;;;42.95;;
73879;SDS011;62211;42.986;23.256;2022-11-15T17:11:50;52.15;;;27.25;;
73879;SDS011;62211;42.986;23.256;2022-11-15T17:14:16;52.67;;;26.05;;
73879;SDS011;62211;42.986;23.256;2022-11-15T17:16:42;76.53;;;33.40;;
73879;SDS011;62211;42.986;23.256;2022-11-15T17:19:12;46.47;;;25.67;;
73879;SDS011;62211;42.986;23.256;2022-11-15T17:21:39;56.50;;;27.60;;
73879;SDS011;62211;42.986;23.256;2022-11-15T17:24:04;49.35;;;26.05;;
73879;SDS011;62211;42.986;23.256;2022-11-15T17:26:30;62.60;;;28.02;;
73879;SDS011;62211;42.986;23.256;2022-11-15T17:28:55;129.88;;;55.33;;
73879;SDS011;62211;42.986;23.256;2022-11-15T17:31:25;54.75;;;29.17;;
73879;SDS011;62211;42.986;23.256;2022-11-15T17:33:51;68.57;;;32.90;;
73879;SDS011;62211;42.986;23.256;2022-11-15T17:36:16;76.63;;;35.85;;
73879;SDS011;62211;42.986;23.256;2022-11-15T17:38:42;75.20;;;36.10;;
73879;SDS011;62211;42.986;23.256;2022-11-15T17:41:14;51.40;;;24.08;;
73879;SDS011;62211;42.986;23.256;2022-11-15T17:43:40;49.95;;;24.33;;
73879;SDS011;62211;42.986;23.256;2022-11-15T17:46:07;47.53;;;24.70;;
73879;SDS011;62211;42.986;23.256;2022-11-15T17:48:34;98.47;;;44.10;;
73879;SDS011;62211;42.986;23.256;2022-11-15T17:51:01;99.55;;;44.35;;
73879;SDS011;62211;42.986;23.256;2022-11-15T17:53:31;104.85;;;43.50;;
73879;SDS011;62211;42.986;23.256;2022-11-15T17:56:04;67.60;;;31.60;;
73879;SDS011;62211;42.986;23.256;2022-11-15T17:58:32;56.03;;;24.50;;
73879;SDS011;62211;42.986;23.256;2022-11-15T18:01:04;45.10;;;21.75;;
73879;SDS011;62211;42.986;23.256;2022-11-15T18:03:34;52.85;;;25.50;;
73879;SDS011;62211;42.986;23.256;2022-11-15T18:06:01;133.77;;;54.05;;
73879;SDS011;62211;42.986;23.256;2022-11-15T18:08:26;175.02;;;66.25;;
73879;SDS011;62211;42.986;23.256;2022-11-15T18:11:00;114.40;;;49.10;;
73879;SDS011;62211;42.986;23.256;2022-11-15T18:13:46;161.20;;;64.03;;
73879;SDS011;62211;42.986;23.256;2022-11-15T18:16:14;125.15;;;51.92;;
73879;SDS011;62211;42.986;23.256;2022-11-15T18:18:41;83.57;;;39.90;;
73879;SDS011;62211;42.986;23.256;2022-11-15T18:21:12;58.03;;;28.33;;
73879;SDS011;62211;42.986;23.256;2022-11-15T18:23:43;54.22;;;27.15;;
73879;SDS011;62211;42.986;23.256;2022-11-15T18:26:09;70.45;;;30.05;;
73879;SDS011;62211;42.986;23.256;2022-11-15T18:28:38;45.25;;;23.80;;
73879;SDS011;62211;42.986;23.256;2022-11-15T18:31:15;44.90;;;22.95;;
73879;SDS011;62211;42.986;23.256;2022-11-15T18:33:42;73.47;;;30.17;;
73879;SDS011;62211;42.986;23.256;2022-11-15T18:36:08;64.55;;;31.50;;